sensor_id;sensor_type;location;lat;lon;timestamp;temperature;humidity
74384;DHT22;62824;52.994;-3.936;2023-02-02T00:00:58;7.80;99.90
74384;DHT22;62824;52.994;-3.936;2023-02-02T00:03:27;7.80;99.90
74384;DHT22;62824;52.994;-3.936;2023-02-02T00:05:54;7.80;99.90
74384;DHT22;62824;52.994;-3.936;2023-02-02T00:08:20;7.80;99.90
74384;DHT22;62824;52.994;-3.936;2023-02-02T00:10:46;7.70;99.90
74384;DHT22;62824;52.994;-3.936;2023-02-02T00:13:13;7.80;99.90
74384;DHT22;62824;52.994;-3.936;2023-02-02T00:15:39;7.70;99.90
74384;DHT22;62824;52.994;-3.936;2023-02-02T00:18:05;7.70;99.90
74384;DHT22;62824;52.994;-3.936;2023-02-02T00:20:31;7.70;99.90
74384;DHT22;62824;52.994;-3.936;2023-02-02T00:22:59;7.70;99.90
74384;DHT22;62824;52.994;-3.936;2023-02-02T00:25:25;7.70;99.90
74384;DHT22;62824;52.994;-3.936;2023-02-02T00:27:51;7.70;99.90
74384;DHT22;62824;52.994;-3.936;2023-02-02T00:30:17;7.80;99.90
74384;DHT22;62824;52.994;-3.936;2023-02-02T00:32:43;7.80;99.90
74384;DHT22;62824;52.994;-3.936;2023-02-02T00:35:09;7.80;99.90
74384;DHT22;62824;52.994;-3.936;2023-02-02T00:37:35;7.80;99.90
74384;DHT22;62824;52.994;-3.936;2023-02-02T00:40:00;7.80;99.90
74384;DHT22;62824;52.994;-3.936;2023-02-02T00:42:26;7.70;99.90
74384;DHT22;62824;52.994;-3.936;2023-02-02T00:44:52;7.70;99.90
74384;DHT22;62824;52.994;-3.936;2023-02-02T00:47:36;7.70;99.90
74384;DHT22;62824;52.994;-3.936;2023-02-02T00:50:02;7.70;99.90
74384;DHT22;62824;52.994;-3.936;2023-02-02T00:52:28;7.70;99.90
74384;DHT22;62824;52.994;-3.936;2023-02-02T00:54:54;7.70;99.90
74384;DHT22;62824;52.994;-3.936;2023-02-02T00:57:20;7.70;99.90
74384;DHT22;62824;52.994;-3.936;2023-02-02T00:59:46;7.70;99.90
74384;DHT22;62824;52.994;-3.936;2023-02-02T01:02:11;7.60;99.90
74384;DHT22;62824;52.994;-3.936;2023-02-02T01:04:38;7.60;99.90
74384;DHT22;62824;52.994;-3.936;2023-02-02T01:07:04;7.60;99.90
74384;DHT22;62824;52.994;-3.936;2023-02-02T01:09:29;7.60;99.90
74384;DHT22;62824;52.994;-3.936;2023-02-02T01:11:55;7.60;99.90
74384;DHT22;62824;52.994;-3.936;2023-02-02T01:14:21;7.60;99.90
74384;DHT22;62824;52.994;-3.936;2023-02-02T01:16:47;7.60;99.90
74384;DHT22;62824;52.994;-3.936;2023-02-02T01:19:13;7.60;99.90
74384;DHT22;62824;52.994;-3.936;2023-02-02T01:21:40;7.60;99.90
74384;DHT22;62824;52.994;-3.936;2023-02-02T01:24:06;7.60;99.90
74384;DHT22;62824;52.994;-3.936;2023-02-02T01:26:32;7.60;99.90
74384;DHT22;62824;52.994;-3.936;2023-02-02T01:28:58;7.60;99.90
74384;DHT22;62824;52.994;-3.936;2023-02-02T01:31:27;7.60;99.90
74384;DHT22;62824;52.994;-3.936;2023-02-02T01:33:52;7.60;99.90
74384;DHT22;62824;52.994;-3.936;2023-02-02T01:36:20;7.60;99.90
74384;DHT22;62824;52.994;-3.936;2023-02-02T01:38:47;7.60;99.90
74384;DHT22;62824;52.994;-3.936;2023-02-02T01:41:17;7.60;99.90
74384;DHT22;62824;52.994;-3.936;2023-02-02T01:46:17;7.60;99.90
74384;DHT22;62824;52.994;-3.936;2023-02-02T01:49:00;7.60;99.90
74384;DHT22;62824;52.994;-3.936;2023-02-02T01:51:34;7.60;99.90
74384;DHT22;62824;52.994;-3.936;2023-02-02T01:54:01;7.50;99.90
74384;DHT22;62824;52.994;-3.936;2023-02-02T01:56:34;7.60;99.90
74384;DHT22;62824;52.994;-3.936;2023-02-02T01:59:01;7.60;99.90
74384;DHT22;62824;52.994;-3.936;2023-02-02T02:01:27;7.60;99.90
74384;DHT22;62824;52.994;-3.936;2023-02-02T02:03:53;7.60;99.90
74384;DHT22;62824;52.994;-3.936;2023-02-02T02:06:20;7.60;99.90
74384;DHT22;62824;52.994;-3.936;2023-02-02T02:11:20;7.60;99.90
74384;DHT22;62824;52.994;-3.936;2023-02-02T02:13:46;7.60;99.90
74384;DHT22;62824;52.994;-3.936;2023-02-02T02:22:21;7.60;99.90
74384;DHT22;62824;52.994;-3.936;2023-02-02T02:36:26;7.60;99.90
74384;DHT22;62824;52.994;-3.936;2023-02-02T02:39:07;7.60;99.90
74384;DHT22;62824;52.994;-3.936;2023-02-02T02:41:40;7.70;99.90
74384;DHT22;62824;52.994;-3.936;2023-02-02T02:44:11;7.70;99.90
74384;DHT22;62824;52.994;-3.936;2023-02-02T02:46:38;7.60;99.90
74384;DHT22;62824;52.994;-3.936;2023-02-02T02:49:07;7.70;99.90
74384;DHT22;62824;52.994;-3.936;2023-02-02T02:51:54;7.70;99.90
74384;DHT22;62824;52.994;-3.936;2023-02-02T02:54:31;7.70;99.90
74384;DHT22;62824;52.994;-3.936;2023-02-02T03:06:03;7.70;99.90
74384;DHT22;62824;52.994;-3.936;2023-02-02T03:08:45;7.70;99.90
74384;DHT22;62824;52.994;-3.936;2023-02-02T03:11:14;7.70;99.90
74384;DHT22;62824;52.994;-3.936;2023-02-02T03:13:41;7.70;99.90
74384;DHT22;62824;52.994;-3.936;2023-02-02T03:16:09;7.70;99.90
74384;DHT22;62824;52.994;-3.936;2023-02-02T03:18:34;7.70;99.90
74384;DHT22;62824;52.994;-3.936;2023-02-02T03:21:01;7.70;99.90
74384;DHT22;62824;52.994;-3.936;2023-02-02T03:23:27;7.80;99.90
74384;DHT22;62824;52.994;-3.936;2023-02-02T03:25:53;7.80;99.90
74384;DHT22;62824;52.994;-3.936;2023-02-02T03:28:20;7.80;99.90
74384;DHT22;62824;52.994;-3.936;2023-02-02T03:30:47;7.80;99.90
74384;DHT22;62824;52.994;-3.936;2023-02-02T03:33:14;7.80;99.90
74384;DHT22;62824;52.994;-3.936;2023-02-02T03:35:40;7.80;99.90
74384;DHT22;62824;52.994;-3.936;2023-02-02T03:38:07;7.80;99.90
74384;DHT22;62824;52.994;-3.936;2023-02-02T03:40:33;7.80;99.90
74384;DHT22;62824;52.994;-3.936;2023-02-02T03:43:24;7.80;99.90
74384;DHT22;62824;52.994;-3.936;2023-02-02T03:46:01;7.80;99.90
74384;DHT22;62824;52.994;-3.936;2023-02-02T03:48:29;7.80;99.90
74384;DHT22;62824;52.994;-3.936;2023-02-02T03:50:55;7.80;99.90
74384;DHT22;62824;52.994;-3.936;2023-02-02T03:53:21;7.80;99.90
74384;DHT22;62824;52.994;-3.936;2023-02-02T03:55:53;7.80;99.90
74384;DHT22;62824;52.994;-3.936;2023-02-02T03:58:32;7.80;99.90
74384;DHT22;62824;52.994;-3.936;2023-02-02T04:01:10;7.80;99.90
74384;DHT22;62824;52.994;-3.936;2023-02-02T04:03:36;7.80;99.90
74384;DHT22;62824;52.994;-3.936;2023-02-02T04:06:02;7.80;99.90
74384;DHT22;62824;52.994;-3.936;2023-02-02T04:08:28;7.80;99.90
74384;DHT22;62824;52.994;-3.936;2023-02-02T04:10:55;7.90;99.90
74384;DHT22;62824;52.994;-3.936;2023-02-02T04:13:21;7.90;99.90
74384;DHT22;62824;52.994;-3.936;2023-02-02T04:15:47;7.90;99.90
74384;DHT22;62824;52.994;-3.936;2023-02-02T04:18:13;7.90;99.90
74384;DHT22;62824;52.994;-3.936;2023-02-02T04:20:38;7.90;99.90
74384;DHT22;62824;52.994;-3.936;2023-02-02T04:23:10;7.90;99.90
74384;DHT22;62824;52.994;-3.936;2023-02-02T04:25:36;7.90;99.90
74384;DHT22;62824;52.994;-3.936;2023-02-02T04:28:02;8.00;99.90
74384;DHT22;62824;52.994;-3.936;2023-02-02T04:30:27;8.00;99.90
74384;DHT22;62824;52.994;-3.936;2023-02-02T04:32:54;8.00;99.90
74384;DHT22;62824;52.994;-3.936;2023-02-02T04:35:19;8.00;99.90
74384;DHT22;62824;52.994;-3.936;2023-02-02T04:37:45;7.90;99.90
74384;DHT22;62824;52.994;-3.936;2023-02-02T04:40:11;8.00;99.90
74384;DHT22;62824;52.994;-3.936;2023-02-02T04:42:37;7.90;99.90
74384;DHT22;62824;52.994;-3.936;2023-02-02T04:45:03;8.00;99.90
74384;DHT22;62824;52.994;-3.936;2023-02-02T04:47:29;8.00;99.90
74384;DHT22;62824;52.994;-3.936;2023-02-02T04:49:55;8.00;99.90
74384;DHT22;62824;52.994;-3.936;2023-02-02T04:52:21;8.00;99.90
74384;DHT22;62824;52.994;-3.936;2023-02-02T04:54:46;8.00;99.90
74384;DHT22;62824;52.994;-3.936;2023-02-02T04:57:12;8.00;99.90
74384;DHT22;62824;52.994;-3.936;2023-02-02T04:59:38;8.00;99.90
74384;DHT22;62824;52.994;-3.936;2023-02-02T05:02:04;8.00;99.90
74384;DHT22;62824;52.994;-3.936;2023-02-02T05:04:30;8.00;99.90
74384;DHT22;62824;52.994;-3.936;2023-02-02T05:06:55;8.00;99.90
74384;DHT22;62824;52.994;-3.936;2023-02-02T05:09:21;8.00;99.90
74384;DHT22;62824;52.994;-3.936;2023-02-02T05:11:47;8.00;99.90
74384;DHT22;62824;52.994;-3.936;2023-02-02T05:14:12;8.10;99.90
74384;DHT22;62824;52.994;-3.936;2023-02-02T05:16:41;8.00;99.90
74384;DHT22;62824;52.994;-3.936;2023-02-02T05:19:09;8.00;99.90
74384;DHT22;62824;52.994;-3.936;2023-02-02T05:21:35;8.00;99.90
74384;DHT22;62824;52.994;-3.936;2023-02-02T05:24:01;8.00;99.90
74384;DHT22;62824;52.994;-3.936;2023-02-02T05:26:28;8.00;99.90
74384;DHT22;62824;52.994;-3.936;2023-02-02T05:28:55;8.00;99.90
74384;DHT22;62824;52.994;-3.936;2023-02-02T05:31:21;8.00;99.90
74384;DHT22;62824;52.994;-3.936;2023-02-02T05:33:46;8.00;99.90
74384;DHT22;62824;52.994;-3.936;2023-02-02T05:36:12;8.00;99.90
74384;DHT22;62824;52.994;-3.936;2023-02-02T05:38:38;8.00;99.90
74384;DHT22;62824;52.994;-3.936;2023-02-02T05:41:04;8.10;99.90
74384;DHT22;62824;52.994;-3.936;2023-02-02T05:43:31;8.10;99.90
74384;DHT22;62824;52.994;-3.936;2023-02-02T05:45:58;8.10;99.90
74384;DHT22;62824;52.994;-3.936;2023-02-02T05:48:24;8.10;99.90
74384;DHT22;62824;52.994;-3.936;2023-02-02T05:51:01;8.10;99.90
74384;DHT22;62824;52.994;-3.936;2023-02-02T05:53:33;8.10;99.90
74384;DHT22;62824;52.994;-3.936;2023-02-02T05:56:02;8.10;99.90
74384;DHT22;62824;52.994;-3.936;2023-02-02T05:58:28;8.10;99.90
74384;DHT22;62824;52.994;-3.936;2023-02-02T06:00:54;8.10;99.90
74384;DHT22;62824;52.994;-3.936;2023-02-02T06:03:20;8.10;99.90
74384;DHT22;62824;52.994;-3.936;2023-02-02T06:05:45;8.10;99.90
74384;DHT22;62824;52.994;-3.936;2023-02-02T06:08:11;8.10;99.90
74384;DHT22;62824;52.994;-3.936;2023-02-02T06:10:40;8.10;99.90
74384;DHT22;62824;52.994;-3.936;2023-02-02T06:13:07;8.10;99.90
74384;DHT22;62824;52.994;-3.936;2023-02-02T06:15:33;8.20;99.90
74384;DHT22;62824;52.994;-3.936;2023-02-02T06:18:00;8.20;99.90
74384;DHT22;62824;52.994;-3.936;2023-02-02T06:20:26;8.20;99.90
74384;DHT22;62824;52.994;-3.936;2023-02-02T06:22:52;8.20;99.90
74384;DHT22;62824;52.994;-3.936;2023-02-02T06:25:18;8.20;99.90
74384;DHT22;62824;52.994;-3.936;2023-02-02T06:27:43;8.20;99.90
74384;DHT22;62824;52.994;-3.936;2023-02-02T06:30:14;8.20;99.90
74384;DHT22;62824;52.994;-3.936;2023-02-02T06:32:40;8.20;99.90
74384;DHT22;62824;52.994;-3.936;2023-02-02T06:35:07;8.20;99.90
74384;DHT22;62824;52.994;-3.936;2023-02-02T06:37:33;8.20;99.90
74384;DHT22;62824;52.994;-3.936;2023-02-02T06:39:59;8.20;99.90
74384;DHT22;62824;52.994;-3.936;2023-02-02T06:42:25;8.20;99.90
74384;DHT22;62824;52.994;-3.936;2023-02-02T06:44:51;8.30;99.90
74384;DHT22;62824;52.994;-3.936;2023-02-02T06:47:16;8.20;99.90
74384;DHT22;62824;52.994;-3.936;2023-02-02T06:49:42;8.30;99.90
74384;DHT22;62824;52.994;-3.936;2023-02-02T06:52:08;8.20;99.90
74384;DHT22;62824;52.994;-3.936;2023-02-02T06:54:33;8.20;99.90
74384;DHT22;62824;52.994;-3.936;2023-02-02T06:56:59;8.20;99.90
74384;DHT22;62824;52.994;-3.936;2023-02-02T06:59:25;8.20;99.90
74384;DHT22;62824;52.994;-3.936;2023-02-02T07:01:50;8.20;99.90
74384;DHT22;62824;52.994;-3.936;2023-02-02T07:04:17;8.20;99.90
74384;DHT22;62824;52.994;-3.936;2023-02-02T07:06:42;8.10;99.90
74384;DHT22;62824;52.994;-3.936;2023-02-02T07:09:08;8.20;99.90
74384;DHT22;62824;52.994;-3.936;2023-02-02T07:11:34;8.20;99.90
74384;DHT22;62824;52.994;-3.936;2023-02-02T07:14:01;8.20;99.90
74384;DHT22;62824;52.994;-3.936;2023-02-02T07:16:27;8.20;99.90
74384;DHT22;62824;52.994;-3.936;2023-02-02T07:18:53;8.20;99.90
74384;DHT22;62824;52.994;-3.936;2023-02-02T07:21:23;8.20;99.90
74384;DHT22;62824;52.994;-3.936;2023-02-02T07:23:50;8.20;99.90
74384;DHT22;62824;52.994;-3.936;2023-02-02T07:26:17;8.20;99.90
74384;DHT22;62824;52.994;-3.936;2023-02-02T07:28:44;8.20;99.90
74384;DHT22;62824;52.994;-3.936;2023-02-02T07:31:14;8.30;99.90
74384;DHT22;62824;52.994;-3.936;2023-02-02T07:33:41;8.20;99.90
74384;DHT22;62824;52.994;-3.936;2023-02-02T07:36:07;8.30;99.90
74384;DHT22;62824;52.994;-3.936;2023-02-02T07:38:33;8.30;99.90
74384;DHT22;62824;52.994;-3.936;2023-02-02T07:41:02;8.30;99.90
74384;DHT22;62824;52.994;-3.936;2023-02-02T07:43:28;8.30;99.90
74384;DHT22;62824;52.994;-3.936;2023-02-02T07:45:57;8.30;99.90
74384;DHT22;62824;52.994;-3.936;2023-02-02T07:48:26;8.30;99.90
74384;DHT22;62824;52.994;-3.936;2023-02-02T07:50:52;8.30;99.90
74384;DHT22;62824;52.994;-3.936;2023-02-02T07:53:17;8.30;99.90
74384;DHT22;62824;52.994;-3.936;2023-02-02T07:55:43;8.30;99.90
74384;DHT22;62824;52.994;-3.936;2023-02-02T07:58:09;8.30;99.90
74384;DHT22;62824;52.994;-3.936;2023-02-02T08:00:35;8.30;99.90
74384;DHT22;62824;52.994;-3.936;2023-02-02T08:03:01;8.30;99.90
74384;DHT22;62824;52.994;-3.936;2023-02-02T08:05:27;8.30;99.90
74384;DHT22;62824;52.994;-3.936;2023-02-02T08:07:52;8.30;99.90
74384;DHT22;62824;52.994;-3.936;2023-02-02T08:10:18;8.40;99.90
74384;DHT22;62824;52.994;-3.936;2023-02-02T08:12:44;8.40;99.90
74384;DHT22;62824;52.994;-3.936;2023-02-02T08:15:10;8.40;99.90
74384;DHT22;62824;52.994;-3.936;2023-02-02T08:17:36;8.30;99.90
74384;DHT22;62824;52.994;-3.936;2023-02-02T08:20:02;8.40;99.90
74384;DHT22;62824;52.994;-3.936;2023-02-02T08:22:29;8.30;99.90
74384;DHT22;62824;52.994;-3.936;2023-02-02T08:24:55;8.30;99.90
74384;DHT22;62824;52.994;-3.936;2023-02-02T08:27:21;8.40;99.90
74384;DHT22;62824;52.994;-3.936;2023-02-02T08:29:47;8.40;99.90
74384;DHT22;62824;52.994;-3.936;2023-02-02T08:32:13;8.40;99.90
74384;DHT22;62824;52.994;-3.936;2023-02-02T08:34:39;8.40;99.90
74384;DHT22;62824;52.994;-3.936;2023-02-02T08:37:05;8.40;99.90
74384;DHT22;62824;52.994;-3.936;2023-02-02T08:39:31;8.40;99.90
74384;DHT22;62824;52.994;-3.936;2023-02-02T08:41:57;8.40;99.90
74384;DHT22;62824;52.994;-3.936;2023-02-02T08:44:22;8.40;99.90
74384;DHT22;62824;52.994;-3.936;2023-02-02T08:46:49;8.40;99.90
74384;DHT22;62824;52.994;-3.936;2023-02-02T08:49:15;8.40;99.90
74384;DHT22;62824;52.994;-3.936;2023-02-02T08:51:40;8.30;99.90
74384;DHT22;62824;52.994;-3.936;2023-02-02T08:54:12;8.40;99.90
74384;DHT22;62824;52.994;-3.936;2023-02-02T08:56:38;8.40;99.90
74384;DHT22;62824;52.994;-3.936;2023-02-02T08:59:04;8.30;99.90
74384;DHT22;62824;52.994;-3.936;2023-02-02T09:01:31;8.30;99.90
74384;DHT22;62824;52.994;-3.936;2023-02-02T09:04:00;8.30;99.90
74384;DHT22;62824;52.994;-3.936;2023-02-02T09:06:29;8.30;99.90
74384;DHT22;62824;52.994;-3.936;2023-02-02T09:08:55;8.30;99.90
74384;DHT22;62824;52.994;-3.936;2023-02-02T09:11:21;8.40;99.90
74384;DHT22;62824;52.994;-3.936;2023-02-02T09:13:51;8.40;99.90
74384;DHT22;62824;52.994;-3.936;2023-02-02T09:16:18;8.30;99.90
74384;DHT22;62824;52.994;-3.936;2023-02-02T09:18:44;8.30;99.90
74384;DHT22;62824;52.994;-3.936;2023-02-02T09:21:13;8.30;99.90
74384;DHT22;62824;52.994;-3.936;2023-02-02T09:23:40;8.30;99.90
74384;DHT22;62824;52.994;-3.936;2023-02-02T09:26:23;8.40;99.90
74384;DHT22;62824;52.994;-3.936;2023-02-02T09:28:54;8.30;99.90
74384;DHT22;62824;52.994;-3.936;2023-02-02T09:31:21;8.40;99.90
74384;DHT22;62824;52.994;-3.936;2023-02-02T09:33:47;8.40;99.90
74384;DHT22;62824;52.994;-3.936;2023-02-02T09:36:15;8.40;99.90
74384;DHT22;62824;52.994;-3.936;2023-02-02T09:38:42;8.40;99.90
74384;DHT22;62824;52.994;-3.936;2023-02-02T09:44:03;8.40;99.90
74384;DHT22;62824;52.994;-3.936;2023-02-02T09:49:03;8.40;99.90
74384;DHT22;62824;52.994;-3.936;2023-02-02T09:51:35;8.40;99.90
74384;DHT22;62824;52.994;-3.936;2023-02-02T09:54:35;8.50;99.90
74384;DHT22;62824;52.994;-3.936;2023-02-02T09:57:07;8.40;99.90
74384;DHT22;62824;52.994;-3.936;2023-02-02T09:59:39;8.50;99.90
74384;DHT22;62824;52.994;-3.936;2023-02-02T10:02:30;8.60;99.90
74384;DHT22;62824;52.994;-3.936;2023-02-02T10:05:06;8.50;99.90
74384;DHT22;62824;52.994;-3.936;2023-02-02T10:07:42;8.60;99.90
74384;DHT22;62824;52.994;-3.936;2023-02-02T10:13:00;8.50;99.90
74384;DHT22;62824;52.994;-3.936;2023-02-02T10:18:23;8.60;99.90
74384;DHT22;62824;52.994;-3.936;2023-02-02T10:21:16;8.50;99.90
74384;DHT22;62824;52.994;-3.936;2023-02-02T10:23:44;8.60;99.90
74384;DHT22;62824;52.994;-3.936;2023-02-02T10:26:29;8.60;99.90
74384;DHT22;62824;52.994;-3.936;2023-02-02T10:34:44;8.70;99.90
74384;DHT22;62824;52.994;-3.936;2023-02-02T10:46:30;8.70;99.90
74384;DHT22;62824;52.994;-3.936;2023-02-02T10:49:10;8.70;99.90
74384;DHT22;62824;52.994;-3.936;2023-02-02T10:51:37;8.70;99.90
74384;DHT22;62824;52.994;-3.936;2023-02-02T10:54:23;8.60;99.90
74384;DHT22;62824;52.994;-3.936;2023-02-02T10:56:53;8.60;99.90
74384;DHT22;62824;52.994;-3.936;2023-02-02T10:59:26;8.60;99.90
74384;DHT22;62824;52.994;-3.936;2023-02-02T11:01:54;8.60;99.90
74384;DHT22;62824;52.994;-3.936;2023-02-02T11:04:21;8.60;99.90
74384;DHT22;62824;52.994;-3.936;2023-02-02T11:07:12;8.60;99.90
74384;DHT22;62824;52.994;-3.936;2023-02-02T11:09:45;8.60;99.90
74384;DHT22;62824;52.994;-3.936;2023-02-02T11:12:27;8.60;99.90
74384;DHT22;62824;52.994;-3.936;2023-02-02T11:14:59;8.70;99.90
74384;DHT22;62824;52.994;-3.936;2023-02-02T11:17:27;8.70;99.90
74384;DHT22;62824;52.994;-3.936;2023-02-02T11:19:52;8.70;99.90
74384;DHT22;62824;52.994;-3.936;2023-02-02T11:24:51;8.70;99.90
74384;DHT22;62824;52.994;-3.936;2023-02-02T11:27:21;8.70;99.90
74384;DHT22;62824;52.994;-3.936;2023-02-02T11:29:52;8.70;99.90
74384;DHT22;62824;52.994;-3.936;2023-02-02T11:32:28;8.70;99.90
74384;DHT22;62824;52.994;-3.936;2023-02-02T11:41:14;8.70;99.90
74384;DHT22;62824;52.994;-3.936;2023-02-02T11:43:52;8.70;99.90
74384;DHT22;62824;52.994;-3.936;2023-02-02T11:46:22;8.70;99.90
74384;DHT22;62824;52.994;-3.936;2023-02-02T11:48:50;8.70;99.90
74384;DHT22;62824;52.994;-3.936;2023-02-02T11:51:25;8.70;99.90
74384;DHT22;62824;52.994;-3.936;2023-02-02T11:54:15;8.70;99.90
74384;DHT22;62824;52.994;-3.936;2023-02-02T11:56:47;8.80;99.90
74384;DHT22;62824;52.994;-3.936;2023-02-02T11:59:38;8.80;99.90
74384;DHT22;62824;52.994;-3.936;2023-02-02T12:07:34;8.80;99.90
74384;DHT22;62824;52.994;-3.936;2023-02-02T12:24:25;8.80;99.90
74384;DHT22;62824;52.994;-3.936;2023-02-02T12:27:24;8.80;99.90
74384;DHT22;62824;52.994;-3.936;2023-02-02T12:30:31;8.70;99.90
74384;DHT22;62824;52.994;-3.936;2023-02-02T12:33:20;8.80;99.90
74384;DHT22;62824;52.994;-3.936;2023-02-02T12:36:06;8.80;99.90
74384;DHT22;62824;52.994;-3.936;2023-02-02T12:56:39;8.90;99.90
74384;DHT22;62824;52.994;-3.936;2023-02-02T13:02:14;9.00;99.90
74384;DHT22;62824;52.994;-3.936;2023-02-02T13:04:49;9.10;99.90
74384;DHT22;62824;52.994;-3.936;2023-02-02T13:12:29;9.00;99.90
74384;DHT22;62824;52.994;-3.936;2023-02-02T13:15:02;8.90;99.90
74384;DHT22;62824;52.994;-3.936;2023-02-02T13:17:52;8.90;99.90
74384;DHT22;62824;52.994;-3.936;2023-02-02T13:20:36;8.90;99.90
74384;DHT22;62824;52.994;-3.936;2023-02-02T13:23:36;8.90;99.90
74384;DHT22;62824;52.994;-3.936;2023-02-02T13:26:10;8.80;99.90
74384;DHT22;62824;52.994;-3.936;2023-02-02T13:28:55;8.80;99.90
74384;DHT22;62824;52.994;-3.936;2023-02-02T13:31:44;8.80;99.90
74384;DHT22;62824;52.994;-3.936;2023-02-02T13:34:24;8.90;99.90
74384;DHT22;62824;52.994;-3.936;2023-02-02T13:36:59;8.90;99.90
74384;DHT22;62824;52.994;-3.936;2023-02-02T13:39:41;8.90;99.90
74384;DHT22;62824;52.994;-3.936;2023-02-02T13:42:16;8.80;99.90
74384;DHT22;62824;52.994;-3.936;2023-02-02T13:44:53;8.80;99.90
74384;DHT22;62824;52.994;-3.936;2023-02-02T13:47:41;8.80;99.90
74384;DHT22;62824;52.994;-3.936;2023-02-02T13:50:15;8.90;99.90
74384;DHT22;62824;52.994;-3.936;2023-02-02T14:01:15;8.90;99.90
74384;DHT22;62824;52.994;-3.936;2023-02-02T14:03:53;8.90;99.90
74384;DHT22;62824;52.994;-3.936;2023-02-02T14:06:24;8.90;99.90
74384;DHT22;62824;52.994;-3.936;2023-02-02T14:11:24;8.90;99.90
74384;DHT22;62824;52.994;-3.936;2023-02-02T14:13:56;8.80;99.90
74384;DHT22;62824;52.994;-3.936;2023-02-02T14:16:45;8.80;99.90
74384;DHT22;62824;52.994;-3.936;2023-02-02T14:19:45;8.80;99.90
74384;DHT22;62824;52.994;-3.936;2023-02-02T14:32:29;8.80;99.90
74384;DHT22;62824;52.994;-3.936;2023-02-02T14:38:01;8.80;99.90
74384;DHT22;62824;52.994;-3.936;2023-02-02T14:41:29;8.80;99.90
74384;DHT22;62824;52.994;-3.936;2023-02-02T14:44:20;8.70;99.90
74384;DHT22;62824;52.994;-3.936;2023-02-02T14:47:02;8.70;99.90
74384;DHT22;62824;52.994;-3.936;2023-02-02T14:49:32;8.80;99.90
74384;DHT22;62824;52.994;-3.936;2023-02-02T14:52:03;8.80;99.90
74384;DHT22;62824;52.994;-3.936;2023-02-02T14:54:38;8.80;99.90
74384;DHT22;62824;52.994;-3.936;2023-02-02T14:57:26;8.80;99.90
74384;DHT22;62824;52.994;-3.936;2023-02-02T14:59:53;8.80;99.90
74384;DHT22;62824;52.994;-3.936;2023-02-02T15:02:38;8.80;99.90
74384;DHT22;62824;52.994;-3.936;2023-02-02T15:08:05;8.80;99.90
74384;DHT22;62824;52.994;-3.936;2023-02-02T15:13:16;8.80;99.90
74384;DHT22;62824;52.994;-3.936;2023-02-02T15:15:45;8.80;99.90
74384;DHT22;62824;52.994;-3.936;2023-02-02T15:18:28;8.90;99.90
74384;DHT22;62824;52.994;-3.936;2023-02-02T15:20:59;8.80;99.90
74384;DHT22;62824;52.994;-3.936;2023-02-02T15:29:05;8.80;99.90
74384;DHT22;62824;52.994;-3.936;2023-02-02T15:31:47;8.80;99.90
74384;DHT22;62824;52.994;-3.936;2023-02-02T15:34:39;8.70;99.90
74384;DHT22;62824;52.994;-3.936;2023-02-02T15:37:14;8.70;99.90
74384;DHT22;62824;52.994;-3.936;2023-02-02T15:39:52;8.70;99.90
74384;DHT22;62824;52.994;-3.936;2023-02-02T15:45:31;8.70;99.90
74384;DHT22;62824;52.994;-3.936;2023-02-02T15:48:08;8.70;99.90
74384;DHT22;62824;52.994;-3.936;2023-02-02T15:50:35;8.70;99.90
74384;DHT22;62824;52.994;-3.936;2023-02-02T15:53:02;8.70;99.90
74384;DHT22;62824;52.994;-3.936;2023-02-02T15:55:35;8.70;99.90
74384;DHT22;62824;52.994;-3.936;2023-02-02T15:58:28;8.70;99.90
74384;DHT22;62824;52.994;-3.936;2023-02-02T16:00:55;8.80;99.90
74384;DHT22;62824;52.994;-3.936;2023-02-02T16:03:25;8.70;99.90
74384;DHT22;62824;52.994;-3.936;2023-02-02T16:05:55;8.70;99.90
74384;DHT22;62824;52.994;-3.936;2023-02-02T16:08:28;8.70;99.90
74384;DHT22;62824;52.994;-3.936;2023-02-02T16:13:39;8.60;99.90
74384;DHT22;62824;52.994;-3.936;2023-02-02T16:16:27;8.60;99.90
74384;DHT22;62824;52.994;-3.936;2023-02-02T16:19:14;8.70;99.90
74384;DHT22;62824;52.994;-3.936;2023-02-02T16:24:18;8.70;99.90
74384;DHT22;62824;52.994;-3.936;2023-02-02T16:26:45;8.60;99.90
74384;DHT22;62824;52.994;-3.936;2023-02-02T16:29:14;8.60;99.90
74384;DHT22;62824;52.994;-3.936;2023-02-02T16:31:46;8.60;99.90
74384;DHT22;62824;52.994;-3.936;2023-02-02T16:34:17;8.60;99.90
74384;DHT22;62824;52.994;-3.936;2023-02-02T16:36:43;8.60;99.90
74384;DHT22;62824;52.994;-3.936;2023-02-02T16:39:21;8.60;99.90
74384;DHT22;62824;52.994;-3.936;2023-02-02T16:41:47;8.60;99.90
74384;DHT22;62824;52.994;-3.936;2023-02-02T16:46:55;8.60;99.90
74384;DHT22;62824;52.994;-3.936;2023-02-02T16:49:23;8.50;99.90
74384;DHT22;62824;52.994;-3.936;2023-02-02T16:52:23;8.60;99.90
74384;DHT22;62824;52.994;-3.936;2023-02-02T16:54:51;8.60;99.90
74384;DHT22;62824;52.994;-3.936;2023-02-02T16:57:31;8.60;99.90
74384;DHT22;62824;52.994;-3.936;2023-02-02T17:00:01;8.60;99.90
74384;DHT22;62824;52.994;-3.936;2023-02-02T17:02:39;8.60;99.90
74384;DHT22;62824;52.994;-3.936;2023-02-02T17:05:37;8.60;99.90
74384;DHT22;62824;52.994;-3.936;2023-02-02T17:08:08;8.60;99.90
74384;DHT22;62824;52.994;-3.936;2023-02-02T17:10:37;8.60;99.90
74384;DHT22;62824;52.994;-3.936;2023-02-02T17:15:59;8.60;99.90
74384;DHT22;62824;52.994;-3.936;2023-02-02T17:18:25;8.60;99.90
74384;DHT22;62824;52.994;-3.936;2023-02-02T17:20:53;8.60;99.90
74384;DHT22;62824;52.994;-3.936;2023-02-02T17:23:29;8.50;99.90
74384;DHT22;62824;52.994;-3.936;2023-02-02T17:25:55;8.60;99.90
74384;DHT22;62824;52.994;-3.936;2023-02-02T17:28:23;8.60;99.90
74384;DHT22;62824;52.994;-3.936;2023-02-02T17:31:01;8.60;99.90
74384;DHT22;62824;52.994;-3.936;2023-02-02T17:33:32;8.60;99.90
74384;DHT22;62824;52.994;-3.936;2023-02-02T17:35:58;8.60;99.90
74384;DHT22;62824;52.994;-3.936;2023-02-02T17:38:24;8.60;99.90
74384;DHT22;62824;52.994;-3.936;2023-02-02T17:40:53;8.60;99.90
74384;DHT22;62824;52.994;-3.936;2023-02-02T17:43:20;8.60;99.90
74384;DHT22;62824;52.994;-3.936;2023-02-02T17:45:45;8.60;99.90
74384;DHT22;62824;52.994;-3.936;2023-02-02T17:48:12;8.60;99.90
74384;DHT22;62824;52.994;-3.936;2023-02-02T17:50:40;8.60;99.90
74384;DHT22;62824;52.994;-3.936;2023-02-02T17:53:17;8.60;99.90
74384;DHT22;62824;52.994;-3.936;2023-02-02T17:55:44;8.60;99.90
74384;DHT22;62824;52.994;-3.936;2023-02-02T17:58:11;8.60;99.90
74384;DHT22;62824;52.994;-3.936;2023-02-02T18:00:38;8.60;99.90
74384;DHT22;62824;52.994;-3.936;2023-02-02T18:03:18;8.60;99.90
74384;DHT22;62824;52.994;-3.936;2023-02-02T18:05:44;8.60;99.90
74384;DHT22;62824;52.994;-3.936;2023-02-02T18:08:11;8.70;99.90
74384;DHT22;62824;52.994;-3.936;2023-02-02T18:10:37;8.70;99.90
74384;DHT22;62824;52.994;-3.936;2023-02-02T18:13:03;8.70;99.90
74384;DHT22;62824;52.994;-3.936;2023-02-02T18:15:29;8.70;99.90
74384;DHT22;62824;52.994;-3.936;2023-02-02T18:17:56;8.70;99.90
74384;DHT22;62824;52.994;-3.936;2023-02-02T18:20:21;8.70;99.90
74384;DHT22;62824;52.994;-3.936;2023-02-02T18:22:50;8.80;99.90
74384;DHT22;62824;52.994;-3.936;2023-02-02T18:25:16;8.70;99.90
74384;DHT22;62824;52.994;-3.936;2023-02-02T18:27:42;8.70;99.90
74384;DHT22;62824;52.994;-3.936;2023-02-02T18:30:12;8.70;99.90
74384;DHT22;62824;52.994;-3.936;2023-02-02T18:32:38;8.80;99.90